Main page
METAR-TAF:

METAR-TAF

Airports :

Zaragoza, Spain

Zaragoza Airport

latitude: 41-40N, longitude: 001-01W, elevation: 263 m

Current weather observation

The report was made 32 minutes ago, at 23:30 UTC
Wind 17 kt from the West
Temperature 15°C
Humidity 59%
Pressure 1022 hPa
Visibility 10 km or more
no clouds below 1500 m and no cumulonimbus

METAR: LEZG 192330Z 28017KT CAVOK 15/07 Q1022

Time: 02:02 (00:02 UTC)

Forecast

The report was made 1 hour and 2 minutes ago, at 23:00 UTC
Forecast valid from 20 at 00 UTC to 20 at 24 UTC
Wind 13 kt from the West/Northwest
Visibility 10 km or more
Few clouds at a height of 4000 ft
Becoming
from 20 at 07 UTC to 20 at 09 UTC
Wind 3 kt from variable directions
Becoming
from 20 at 15 UTC to 20 at 18 UTC
Wind 6 kt from the East
Becoming
from 20 at 18 UTC to 20 at 21 UTC
Wind 3 kt from variable directions

TAF: LEZG 192300Z 2000/2024 30013KT 9999 FEW040 TX26/2013Z TN10/2006Z BECMG 2007/2009 VRB03KT BECMG 2015/2018 10006KT BECMG 2018/2021 VRB03KT

Weather observations and forecasts of more than 4000 airports (METAR and TAF reports).

The available stations are represented by yellow and red dots on the map.

Hover mouse over dot to see the name of the station.

Then click to see weather observations and forecasts.

To change the map : click on the green buttons with a black cross to zoom in, on the green button with a dash to zoom out, or on the green arrows for adjacent maps.


METAR-TAF: